sensor_id;sensor_type;location;lat;lon;timestamp;P1;durP1;ratioP1;P2;durP2;ratioP2
63688;SDS011;54895;40.928;14.480;2023-06-22T00:02:14;16.20;;;7.10;;
63688;SDS011;54895;40.928;14.480;2023-06-22T00:04:41;11.32;;;7.55;;
63688;SDS011;54895;40.928;14.480;2023-06-22T00:07:07;13.27;;;7.40;;
63688;SDS011;54895;40.928;14.480;2023-06-22T00:09:34;12.57;;;7.13;;
63688;SDS011;54895;40.928;14.480;2023-06-22T00:12:01;12.65;;;7.20;;
63688;SDS011;54895;40.928;14.480;2023-06-22T00:14:27;11.20;;;7.55;;
63688;SDS011;54895;40.928;14.480;2023-06-22T00:16:53;9.02;;;6.82;;
63688;SDS011;54895;40.928;14.480;2023-06-22T00:19:21;9.80;;;6.47;;
63688;SDS011;54895;40.928;14.480;2023-06-22T00:21:47;12.77;;;7.40;;
63688;SDS011;54895;40.928;14.480;2023-06-22T00:24:19;12.90;;;7.20;;
63688;SDS011;54895;40.928;14.480;2023-06-22T00:26:46;12.65;;;7.50;;
63688;SDS011;54895;40.928;14.480;2023-06-22T00:29:13;9.50;;;7.53;;
63688;SDS011;54895;40.928;14.480;2023-06-22T00:31:39;12.35;;;7.53;;
63688;SDS011;54895;40.928;14.480;2023-06-22T00:34:06;10.95;;;6.88;;
63688;SDS011;54895;40.928;14.480;2023-06-22T00:40:41;11.18;;;7.38;;
63688;SDS011;54895;40.928;14.480;2023-06-22T00:43:08;13.35;;;6.80;;
63688;SDS011;54895;40.928;14.480;2023-06-22T00:45:35;10.15;;;7.53;;
63688;SDS011;54895;40.928;14.480;2023-06-22T00:48:01;12.38;;;7.60;;
63688;SDS011;54895;40.928;14.480;2023-06-22T00:50:29;12.93;;;7.57;;
63688;SDS011;54895;40.928;14.480;2023-06-22T00:53:03;10.20;;;6.83;;
63688;SDS011;54895;40.928;14.480;2023-06-22T00:58:07;11.00;;;7.30;;
63688;SDS011;54895;40.928;14.480;2023-06-22T01:00:37;12.27;;;7.28;;
63688;SDS011;54895;40.928;14.480;2023-06-22T01:03:04;10.95;;;7.18;;
63688;SDS011;54895;40.928;14.480;2023-06-22T01:05:35;11.52;;;7.28;;
63688;SDS011;54895;40.928;14.480;2023-06-22T01:13:23;11.52;;;7.90;;
63688;SDS011;54895;40.928;14.480;2023-06-22T01:15:52;11.93;;;7.32;;
63688;SDS011;54895;40.928;14.480;2023-06-22T01:18:23;13.80;;;8.00;;
63688;SDS011;54895;40.928;14.480;2023-06-22T01:20:55;11.98;;;8.10;;
63688;SDS011;54895;40.928;14.480;2023-06-22T01:23:33;10.82;;;7.85;;
63688;SDS011;54895;40.928;14.480;2023-06-22T01:26:20;11.73;;;8.70;;
63688;SDS011;54895;40.928;14.480;2023-06-22T01:28:55;11.45;;;8.23;;
63688;SDS011;54895;40.928;14.480;2023-06-22T01:31:26;14.07;;;8.40;;
63688;SDS011;54895;40.928;14.480;2023-06-22T01:33:57;11.00;;;7.85;;
63688;SDS011;54895;40.928;14.480;2023-06-22T01:40:20;11.30;;;8.07;;
63688;SDS011;54895;40.928;14.480;2023-06-22T01:42:48;13.85;;;9.02;;
63688;SDS011;54895;40.928;14.480;2023-06-22T01:45:16;17.02;;;8.30;;
63688;SDS011;54895;40.928;14.480;2023-06-22T01:47:43;11.70;;;7.97;;
63688;SDS011;54895;40.928;14.480;2023-06-22T01:50:11;13.65;;;7.97;;
63688;SDS011;54895;40.928;14.480;2023-06-22T01:52:38;16.02;;;7.95;;
63688;SDS011;54895;40.928;14.480;2023-06-22T01:55:04;14.18;;;8.45;;
63688;SDS011;54895;40.928;14.480;2023-06-22T01:57:31;13.52;;;8.57;;
63688;SDS011;54895;40.928;14.480;2023-06-22T02:02:27;12.93;;;8.25;;
63688;SDS011;54895;40.928;14.480;2023-06-22T02:05:05;11.23;;;8.30;;
63688;SDS011;54895;40.928;14.480;2023-06-22T02:07:34;14.70;;;8.80;;
63688;SDS011;54895;40.928;14.480;2023-06-22T02:10:08;15.50;;;8.75;;
63688;SDS011;54895;40.928;14.480;2023-06-22T02:12:38;12.52;;;8.48;;
63688;SDS011;54895;40.928;14.480;2023-06-22T02:15:05;14.75;;;8.27;;
63688;SDS011;54895;40.928;14.480;2023-06-22T02:17:33;12.25;;;8.75;;
63688;SDS011;54895;40.928;14.480;2023-06-22T02:20:01;11.60;;;8.40;;
63688;SDS011;54895;40.928;14.480;2023-06-22T02:22:30;11.05;;;8.52;;
63688;SDS011;54895;40.928;14.480;2023-06-22T02:24:56;11.48;;;8.05;;
63688;SDS011;54895;40.928;14.480;2023-06-22T02:27:22;11.90;;;8.35;;
63688;SDS011;54895;40.928;14.480;2023-06-22T02:29:49;11.65;;;8.23;;
63688;SDS011;54895;40.928;14.480;2023-06-22T02:32:15;11.02;;;8.13;;
63688;SDS011;54895;40.928;14.480;2023-06-22T02:34:46;12.30;;;8.70;;
63688;SDS011;54895;40.928;14.480;2023-06-22T02:40:56;9.52;;;7.97;;
63688;SDS011;54895;40.928;14.480;2023-06-22T02:43:24;11.07;;;7.70;;
63688;SDS011;54895;40.928;14.480;2023-06-22T02:45:50;10.05;;;8.18;;
63688;SDS011;54895;40.928;14.480;2023-06-22T02:48:17;11.05;;;7.75;;
63688;SDS011;54895;40.928;14.480;2023-06-22T02:50:44;11.77;;;7.68;;
63688;SDS011;54895;40.928;14.480;2023-06-22T02:53:11;11.32;;;8.30;;
63688;SDS011;54895;40.928;14.480;2023-06-22T02:55:40;10.60;;;8.10;;
63688;SDS011;54895;40.928;14.480;2023-06-22T02:58:07;10.15;;;7.82;;
63688;SDS011;54895;40.928;14.480;2023-06-22T03:00:36;10.10;;;8.00;;
63688;SDS011;54895;40.928;14.480;2023-06-22T03:03:04;12.48;;;8.30;;
63688;SDS011;54895;40.928;14.480;2023-06-22T03:05:31;14.60;;;9.02;;
63688;SDS011;54895;40.928;14.480;2023-06-22T03:07:59;12.43;;;8.65;;
63688;SDS011;54895;40.928;14.480;2023-06-22T03:10:29;12.82;;;8.90;;
63688;SDS011;54895;40.928;14.480;2023-06-22T03:12:56;14.13;;;9.18;;
63688;SDS011;54895;40.928;14.480;2023-06-22T03:15:22;17.65;;;10.95;;
63688;SDS011;54895;40.928;14.480;2023-06-22T03:17:50;15.45;;;11.43;;
63688;SDS011;54895;40.928;14.480;2023-06-22T03:20:16;16.67;;;10.98;;
63688;SDS011;54895;40.928;14.480;2023-06-22T03:22:42;17.58;;;10.38;;
63688;SDS011;54895;40.928;14.480;2023-06-22T03:25:09;12.40;;;9.32;;
63688;SDS011;54895;40.928;14.480;2023-06-22T03:27:42;16.83;;;9.07;;
63688;SDS011;54895;40.928;14.480;2023-06-22T03:30:10;18.02;;;8.77;;
63688;SDS011;54895;40.928;14.480;2023-06-22T03:32:37;20.23;;;9.18;;
63688;SDS011;54895;40.928;14.480;2023-06-22T03:35:05;17.30;;;8.60;;
63688;SDS011;54895;40.928;14.480;2023-06-22T03:40:56;20.15;;;9.35;;
63688;SDS011;54895;40.928;14.480;2023-06-22T03:43:23;17.00;;;8.55;;
63688;SDS011;54895;40.928;14.480;2023-06-22T03:45:50;16.38;;;8.45;;
63688;SDS011;54895;40.928;14.480;2023-06-22T03:48:16;16.17;;;8.70;;
63688;SDS011;54895;40.928;14.480;2023-06-22T03:50:42;12.13;;;7.85;;
63688;SDS011;54895;40.928;14.480;2023-06-22T03:53:10;14.70;;;8.13;;
63688;SDS011;54895;40.928;14.480;2023-06-22T03:55:36;13.23;;;8.27;;
63688;SDS011;54895;40.928;14.480;2023-06-22T03:58:03;18.77;;;9.25;;
63688;SDS011;54895;40.928;14.480;2023-06-22T04:00:31;16.60;;;8.77;;
63688;SDS011;54895;40.928;14.480;2023-06-22T04:02:58;12.50;;;8.50;;
63688;SDS011;54895;40.928;14.480;2023-06-22T04:05:24;16.83;;;9.50;;
63688;SDS011;54895;40.928;14.480;2023-06-22T04:07:50;14.95;;;8.65;;
63688;SDS011;54895;40.928;14.480;2023-06-22T04:10:16;14.77;;;9.00;;
63688;SDS011;54895;40.928;14.480;2023-06-22T04:12:43;13.52;;;8.52;;
63688;SDS011;54895;40.928;14.480;2023-06-22T04:15:09;16.70;;;8.65;;
63688;SDS011;54895;40.928;14.480;2023-06-22T04:17:35;12.43;;;8.57;;
63688;SDS011;54895;40.928;14.480;2023-06-22T04:20:02;10.52;;;8.50;;
63688;SDS011;54895;40.928;14.480;2023-06-22T04:22:29;13.10;;;8.23;;
63688;SDS011;54895;40.928;14.480;2023-06-22T04:24:56;12.98;;;8.60;;
63688;SDS011;54895;40.928;14.480;2023-06-22T04:27:24;14.40;;;8.95;;
63688;SDS011;54895;40.928;14.480;2023-06-22T04:29:51;17.50;;;9.00;;
63688;SDS011;54895;40.928;14.480;2023-06-22T04:32:18;18.23;;;8.50;;
63688;SDS011;54895;40.928;14.480;2023-06-22T04:34:45;15.60;;;9.90;;
63688;SDS011;54895;40.928;14.480;2023-06-22T04:41:12;13.57;;;9.20;;
63688;SDS011;54895;40.928;14.480;2023-06-22T04:43:40;15.88;;;9.27;;
63688;SDS011;54895;40.928;14.480;2023-06-22T04:46:06;13.77;;;9.32;;
63688;SDS011;54895;40.928;14.480;2023-06-22T04:48:32;18.67;;;10.00;;
63688;SDS011;54895;40.928;14.480;2023-06-22T04:50:59;17.65;;;9.27;;
63688;SDS011;54895;40.928;14.480;2023-06-22T04:53:32;15.70;;;9.70;;
63688;SDS011;54895;40.928;14.480;2023-06-22T04:55:58;15.52;;;9.55;;
63688;SDS011;54895;40.928;14.480;2023-06-22T04:58:25;15.07;;;9.98;;
63688;SDS011;54895;40.928;14.480;2023-06-22T05:00:54;18.35;;;9.95;;
63688;SDS011;54895;40.928;14.480;2023-06-22T05:03:22;15.85;;;9.52;;
63688;SDS011;54895;40.928;14.480;2023-06-22T05:05:52;16.20;;;9.18;;
63688;SDS011;54895;40.928;14.480;2023-06-22T05:08:19;14.05;;;8.63;;
63688;SDS011;54895;40.928;14.480;2023-06-22T05:10:45;13.88;;;8.38;;
63688;SDS011;54895;40.928;14.480;2023-06-22T05:13:12;12.07;;;8.65;;
63688;SDS011;54895;40.928;14.480;2023-06-22T05:15:38;16.48;;;8.57;;
63688;SDS011;54895;40.928;14.480;2023-06-22T05:18:06;13.30;;;8.50;;
63688;SDS011;54895;40.928;14.480;2023-06-22T05:20:32;12.75;;;8.45;;
63688;SDS011;54895;40.928;14.480;2023-06-22T05:23:02;11.60;;;8.02;;
63688;SDS011;54895;40.928;14.480;2023-06-22T05:25:28;20.35;;;8.35;;
63688;SDS011;54895;40.928;14.480;2023-06-22T05:27:55;14.20;;;7.95;;
63688;SDS011;54895;40.928;14.480;2023-06-22T05:30:22;13.05;;;7.97;;
63688;SDS011;54895;40.928;14.480;2023-06-22T05:32:48;13.15;;;7.90;;
63688;SDS011;54895;40.928;14.480;2023-06-22T05:35:14;10.65;;;7.30;;
63688;SDS011;54895;40.928;14.480;2023-06-22T05:41:08;10.65;;;7.65;;
63688;SDS011;54895;40.928;14.480;2023-06-22T05:43:35;10.70;;;7.60;;
63688;SDS011;54895;40.928;14.480;2023-06-22T05:46:02;18.60;;;8.88;;
63688;SDS011;54895;40.928;14.480;2023-06-22T05:48:29;12.27;;;8.85;;
63688;SDS011;54895;40.928;14.480;2023-06-22T05:50:56;17.45;;;10.20;;
63688;SDS011;54895;40.928;14.480;2023-06-22T05:53:23;20.13;;;12.48;;
63688;SDS011;54895;40.928;14.480;2023-06-22T05:55:50;14.95;;;10.75;;
63688;SDS011;54895;40.928;14.480;2023-06-22T05:58:16;26.83;;;11.70;;
63688;SDS011;54895;40.928;14.480;2023-06-22T06:00:43;17.40;;;10.20;;
63688;SDS011;54895;40.928;14.480;2023-06-22T06:03:10;15.75;;;10.35;;
63688;SDS011;54895;40.928;14.480;2023-06-22T06:05:36;14.85;;;10.52;;
63688;SDS011;54895;40.928;14.480;2023-06-22T06:08:05;17.02;;;10.88;;
63688;SDS011;54895;40.928;14.480;2023-06-22T06:10:32;16.23;;;11.05;;
63688;SDS011;54895;40.928;14.480;2023-06-22T06:12:59;15.68;;;9.93;;
63688;SDS011;54895;40.928;14.480;2023-06-22T06:15:28;17.52;;;9.93;;
63688;SDS011;54895;40.928;14.480;2023-06-22T06:17:55;13.80;;;9.32;;
63688;SDS011;54895;40.928;14.480;2023-06-22T06:20:23;14.48;;;9.45;;
63688;SDS011;54895;40.928;14.480;2023-06-22T06:22:50;16.90;;;8.75;;
63688;SDS011;54895;40.928;14.480;2023-06-22T06:25:17;13.55;;;9.05;;
63688;SDS011;54895;40.928;14.480;2023-06-22T06:27:46;17.73;;;9.63;;
63688;SDS011;54895;40.928;14.480;2023-06-22T06:30:13;16.25;;;9.07;;
63688;SDS011;54895;40.928;14.480;2023-06-22T06:32:42;14.60;;;9.18;;
63688;SDS011;54895;40.928;14.480;2023-06-22T06:35:12;17.17;;;9.20;;
63688;SDS011;54895;40.928;14.480;2023-06-22T06:41:08;19.80;;;8.98;;
63688;SDS011;54895;40.928;14.480;2023-06-22T06:43:34;14.95;;;8.55;;
63688;SDS011;54895;40.928;14.480;2023-06-22T06:46:01;11.35;;;8.18;;
63688;SDS011;54895;40.928;14.480;2023-06-22T06:48:29;13.77;;;8.10;;
63688;SDS011;54895;40.928;14.480;2023-06-22T06:50:55;12.63;;;7.00;;
63688;SDS011;54895;40.928;14.480;2023-06-22T06:53:22;11.93;;;8.07;;
63688;SDS011;54895;40.928;14.480;2023-06-22T06:55:48;16.95;;;7.40;;
63688;SDS011;54895;40.928;14.480;2023-06-22T06:58:15;14.43;;;6.95;;
63688;SDS011;54895;40.928;14.480;2023-06-22T07:00:42;14.52;;;7.60;;
63688;SDS011;54895;40.928;14.480;2023-06-22T07:03:09;14.57;;;7.97;;
63688;SDS011;54895;40.928;14.480;2023-06-22T07:05:36;13.25;;;7.10;;
63688;SDS011;54895;40.928;14.480;2023-06-22T07:08:02;13.23;;;7.20;;
63688;SDS011;54895;40.928;14.480;2023-06-22T07:10:29;13.20;;;7.30;;
63688;SDS011;54895;40.928;14.480;2023-06-22T07:12:56;15.68;;;6.20;;
63688;SDS011;54895;40.928;14.480;2023-06-22T07:15:23;11.68;;;6.80;;
63688;SDS011;54895;40.928;14.480;2023-06-22T07:17:49;15.63;;;7.10;;
63688;SDS011;54895;40.928;14.480;2023-06-22T07:20:16;13.43;;;6.75;;
63688;SDS011;54895;40.928;14.480;2023-06-22T07:22:43;13.73;;;7.00;;
63688;SDS011;54895;40.928;14.480;2023-06-22T07:25:13;14.43;;;6.65;;
63688;SDS011;54895;40.928;14.480;2023-06-22T07:27:45;11.25;;;6.60;;
63688;SDS011;54895;40.928;14.480;2023-06-22T07:30:32;14.32;;;6.35;;
63688;SDS011;54895;40.928;14.480;2023-06-22T07:32:59;11.65;;;6.20;;
63688;SDS011;54895;40.928;14.480;2023-06-22T07:35:30;12.30;;;6.50;;
63688;SDS011;54895;40.928;14.480;2023-06-22T07:41:22;12.93;;;6.13;;
63688;SDS011;54895;40.928;14.480;2023-06-22T07:43:50;10.82;;;6.68;;
63688;SDS011;54895;40.928;14.480;2023-06-22T07:46:17;11.18;;;6.38;;
63688;SDS011;54895;40.928;14.480;2023-06-22T07:48:44;9.82;;;5.85;;
63688;SDS011;54895;40.928;14.480;2023-06-22T07:51:11;11.40;;;5.80;;
63688;SDS011;54895;40.928;14.480;2023-06-22T07:53:42;10.75;;;5.47;;
63688;SDS011;54895;40.928;14.480;2023-06-22T07:56:10;13.45;;;6.13;;
63688;SDS011;54895;40.928;14.480;2023-06-22T07:58:37;11.95;;;6.15;;
63688;SDS011;54895;40.928;14.480;2023-06-22T08:01:04;10.18;;;6.20;;
63688;SDS011;54895;40.928;14.480;2023-06-22T08:03:32;12.10;;;6.00;;
63688;SDS011;54895;40.928;14.480;2023-06-22T08:05:59;9.27;;;5.88;;
63688;SDS011;54895;40.928;14.480;2023-06-22T08:08:26;11.07;;;6.15;;
63688;SDS011;54895;40.928;14.480;2023-06-22T08:10:53;11.38;;;5.70;;
63688;SDS011;54895;40.928;14.480;2023-06-22T08:13:20;11.05;;;5.90;;
63688;SDS011;54895;40.928;14.480;2023-06-22T08:15:46;13.20;;;6.38;;
63688;SDS011;54895;40.928;14.480;2023-06-22T08:18:14;12.85;;;5.75;;
63688;SDS011;54895;40.928;14.480;2023-06-22T08:20:40;10.70;;;5.82;;
63688;SDS011;54895;40.928;14.480;2023-06-22T08:23:08;12.82;;;5.68;;
63688;SDS011;54895;40.928;14.480;2023-06-22T08:25:35;12.57;;;5.68;;
63688;SDS011;54895;40.928;14.480;2023-06-22T08:28:02;14.25;;;6.13;;
63688;SDS011;54895;40.928;14.480;2023-06-22T08:30:29;8.98;;;6.00;;
63688;SDS011;54895;40.928;14.480;2023-06-22T08:32:57;12.82;;;5.95;;
63688;SDS011;54895;40.928;14.480;2023-06-22T08:35:23;12.35;;;6.00;;
63688;SDS011;54895;40.928;14.480;2023-06-22T08:41:40;13.70;;;5.80;;
63688;SDS011;54895;40.928;14.480;2023-06-22T08:44:07;13.65;;;6.53;;
63688;SDS011;54895;40.928;14.480;2023-06-22T08:46:34;12.02;;;6.53;;
63688;SDS011;54895;40.928;14.480;2023-06-22T08:49:00;15.25;;;6.70;;
63688;SDS011;54895;40.928;14.480;2023-06-22T08:51:27;11.77;;;6.03;;
63688;SDS011;54895;40.928;14.480;2023-06-22T08:53:54;14.18;;;6.25;;
63688;SDS011;54895;40.928;14.480;2023-06-22T08:56:21;10.75;;;6.25;;
63688;SDS011;54895;40.928;14.480;2023-06-22T08:58:47;13.15;;;5.95;;
63688;SDS011;54895;40.928;14.480;2023-06-22T09:01:14;11.27;;;6.25;;
63688;SDS011;54895;40.928;14.480;2023-06-22T09:03:42;15.38;;;6.32;;
63688;SDS011;54895;40.928;14.480;2023-06-22T09:06:09;14.18;;;6.38;;
63688;SDS011;54895;40.928;14.480;2023-06-22T09:08:36;12.68;;;6.32;;
63688;SDS011;54895;40.928;14.480;2023-06-22T09:11:02;12.82;;;6.43;;
63688;SDS011;54895;40.928;14.480;2023-06-22T09:13:30;13.30;;;6.75;;
63688;SDS011;54895;40.928;14.480;2023-06-22T09:15:58;16.17;;;6.65;;
63688;SDS011;54895;40.928;14.480;2023-06-22T09:18:24;14.65;;;6.55;;
63688;SDS011;54895;40.928;14.480;2023-06-22T09:20:51;9.15;;;6.05;;
63688;SDS011;54895;40.928;14.480;2023-06-22T09:23:17;16.95;;;6.47;;
63688;SDS011;54895;40.928;14.480;2023-06-22T09:25:44;12.68;;;6.05;;
63688;SDS011;54895;40.928;14.480;2023-06-22T09:28:10;13.60;;;6.53;;
63688;SDS011;54895;40.928;14.480;2023-06-22T09:30:37;12.65;;;6.15;;
63688;SDS011;54895;40.928;14.480;2023-06-22T09:33:03;11.43;;;6.55;;
63688;SDS011;54895;40.928;14.480;2023-06-22T09:35:30;15.05;;;6.38;;
63688;SDS011;54895;40.928;14.480;2023-06-22T09:41:18;10.70;;;6.47;;
63688;SDS011;54895;40.928;14.480;2023-06-22T09:43:45;15.52;;;7.10;;
63688;SDS011;54895;40.928;14.480;2023-06-22T09:46:12;12.90;;;6.22;;
63688;SDS011;54895;40.928;14.480;2023-06-22T09:48:39;10.70;;;6.25;;
63688;SDS011;54895;40.928;14.480;2023-06-22T09:51:06;11.88;;;6.35;;
63688;SDS011;54895;40.928;14.480;2023-06-22T09:53:33;17.15;;;7.05;;
63688;SDS011;54895;40.928;14.480;2023-06-22T09:56:01;9.65;;;6.82;;
63688;SDS011;54895;40.928;14.480;2023-06-22T09:58:28;12.25;;;6.72;;
63688;SDS011;54895;40.928;14.480;2023-06-22T10:00:55;18.30;;;7.20;;
63688;SDS011;54895;40.928;14.480;2023-06-22T10:03:22;14.18;;;6.97;;
63688;SDS011;54895;40.928;14.480;2023-06-22T10:05:49;10.07;;;6.20;;
63688;SDS011;54895;40.928;14.480;2023-06-22T10:08:16;12.15;;;6.88;;
63688;SDS011;54895;40.928;14.480;2023-06-22T10:10:43;15.38;;;7.30;;
63688;SDS011;54895;40.928;14.480;2023-06-22T10:13:10;14.43;;;7.43;;
63688;SDS011;54895;40.928;14.480;2023-06-22T10:15:38;16.42;;;7.15;;
63688;SDS011;54895;40.928;14.480;2023-06-22T10:18:05;13.00;;;7.13;;
63688;SDS011;54895;40.928;14.480;2023-06-22T10:20:32;14.38;;;7.75;;
63688;SDS011;54895;40.928;14.480;2023-06-22T10:22:59;12.55;;;7.82;;
63688;SDS011;54895;40.928;14.480;2023-06-22T10:25:26;14.70;;;7.93;;
63688;SDS011;54895;40.928;14.480;2023-06-22T10:27:53;15.48;;;8.13;;
63688;SDS011;54895;40.928;14.480;2023-06-22T10:30:21;16.55;;;7.93;;
63688;SDS011;54895;40.928;14.480;2023-06-22T10:32:48;13.05;;;8.02;;
63688;SDS011;54895;40.928;14.480;2023-06-22T10:35:16;16.20;;;9.40;;
63688;SDS011;54895;40.928;14.480;2023-06-22T10:41:53;15.43;;;7.82;;
63688;SDS011;54895;40.928;14.480;2023-06-22T10:44:20;17.52;;;8.27;;
63688;SDS011;54895;40.928;14.480;2023-06-22T10:46:46;16.10;;;8.65;;
63688;SDS011;54895;40.928;14.480;2023-06-22T10:49:13;17.13;;;8.43;;
63688;SDS011;54895;40.928;14.480;2023-06-22T10:51:39;13.55;;;7.65;;
63688;SDS011;54895;40.928;14.480;2023-06-22T10:54:07;9.98;;;6.57;;
63688;SDS011;54895;40.928;14.480;2023-06-22T10:56:34;12.50;;;7.40;;
63688;SDS011;54895;40.928;14.480;2023-06-22T10:59:01;13.95;;;7.00;;
63688;SDS011;54895;40.928;14.480;2023-06-22T11:01:27;10.85;;;7.13;;
63688;SDS011;54895;40.928;14.480;2023-06-22T11:03:54;15.43;;;7.32;;
63688;SDS011;54895;40.928;14.480;2023-06-22T11:06:20;13.70;;;7.40;;
63688;SDS011;54895;40.928;14.480;2023-06-22T11:08:47;15.90;;;7.55;;
63688;SDS011;54895;40.928;14.480;2023-06-22T11:11:14;10.05;;;6.70;;
63688;SDS011;54895;40.928;14.480;2023-06-22T11:13:43;13.57;;;6.85;;
63688;SDS011;54895;40.928;14.480;2023-06-22T11:16:10;10.48;;;6.60;;
63688;SDS011;54895;40.928;14.480;2023-06-22T11:18:36;10.75;;;6.57;;
63688;SDS011;54895;40.928;14.480;2023-06-22T11:21:03;14.70;;;7.20;;
63688;SDS011;54895;40.928;14.480;2023-06-22T11:23:29;13.93;;;7.20;;
63688;SDS011;54895;40.928;14.480;2023-06-22T11:25:56;12.75;;;6.32;;
63688;SDS011;54895;40.928;14.480;2023-06-22T11:28:22;14.05;;;6.70;;
63688;SDS011;54895;40.928;14.480;2023-06-22T11:30:49;10.32;;;6.32;;
63688;SDS011;54895;40.928;14.480;2023-06-22T11:33:15;11.57;;;6.10;;
63688;SDS011;54895;40.928;14.480;2023-06-22T11:35:42;18.45;;;6.88;;
63688;SDS011;54895;40.928;14.480;2023-06-22T11:41:49;11.23;;;6.75;;
63688;SDS011;54895;40.928;14.480;2023-06-22T11:44:16;14.43;;;6.78;;
63688;SDS011;54895;40.928;14.480;2023-06-22T11:46:43;13.77;;;6.68;;
63688;SDS011;54895;40.928;14.480;2023-06-22T11:49:11;13.45;;;6.65;;
63688;SDS011;54895;40.928;14.480;2023-06-22T11:51:38;10.90;;;6.82;;
63688;SDS011;54895;40.928;14.480;2023-06-22T11:54:06;12.00;;;6.97;;
63688;SDS011;54895;40.928;14.480;2023-06-22T11:56:33;12.13;;;6.70;;
63688;SDS011;54895;40.928;14.480;2023-06-22T11:59:01;15.10;;;6.93;;
63688;SDS011;54895;40.928;14.480;2023-06-22T12:01:28;10.77;;;6.70;;
63688;SDS011;54895;40.928;14.480;2023-06-22T12:03:55;13.82;;;6.50;;
63688;SDS011;54895;40.928;14.480;2023-06-22T12:06:23;9.98;;;6.30;;
63688;SDS011;54895;40.928;14.480;2023-06-22T12:08:50;15.82;;;6.82;;
63688;SDS011;54895;40.928;14.480;2023-06-22T12:11:17;8.57;;;6.38;;
63688;SDS011;54895;40.928;14.480;2023-06-22T12:13:45;11.30;;;6.30;;
63688;SDS011;54895;40.928;14.480;2023-06-22T12:16:12;10.98;;;6.47;;
63688;SDS011;54895;40.928;14.480;2023-06-22T12:18:39;13.60;;;6.20;;
63688;SDS011;54895;40.928;14.480;2023-06-22T12:21:07;8.07;;;5.57;;
63688;SDS011;54895;40.928;14.480;2023-06-22T12:23:34;9.38;;;5.30;;
63688;SDS011;54895;40.928;14.480;2023-06-22T12:26:02;10.20;;;5.38;;
63688;SDS011;54895;40.928;14.480;2023-06-22T12:28:29;8.82;;;5.15;;
63688;SDS011;54895;40.928;14.480;2023-06-22T12:30:56;9.60;;;5.15;;
63688;SDS011;54895;40.928;14.480;2023-06-22T12:33:23;7.88;;;5.25;;
63688;SDS011;54895;40.928;14.480;2023-06-22T12:35:50;9.35;;;5.57;;
63688;SDS011;54895;40.928;14.480;2023-06-22T12:42:08;7.85;;;5.10;;
63688;SDS011;54895;40.928;14.480;2023-06-22T12:44:36;13.23;;;5.70;;
63688;SDS011;54895;40.928;14.480;2023-06-22T12:47:07;10.02;;;5.00;;
63688;SDS011;54895;40.928;14.480;2023-06-22T12:49:34;8.32;;;5.68;;
63688;SDS011;54895;40.928;14.480;2023-06-22T12:52:02;8.07;;;5.40;;
63688;SDS011;54895;40.928;14.480;2023-06-22T12:54:29;10.35;;;5.80;;
63688;SDS011;54895;40.928;14.480;2023-06-22T12:56:55;10.98;;;6.57;;
63688;SDS011;54895;40.928;14.480;2023-06-22T12:59:22;10.43;;;5.45;;
63688;SDS011;54895;40.928;14.480;2023-06-22T13:01:49;9.48;;;5.60;;
63688;SDS011;54895;40.928;14.480;2023-06-22T13:04:15;10.80;;;6.05;;
63688;SDS011;54895;40.928;14.480;2023-06-22T13:06:41;10.55;;;6.10;;
63688;SDS011;54895;40.928;14.480;2023-06-22T13:09:09;7.43;;;5.97;;
63688;SDS011;54895;40.928;14.480;2023-06-22T13:11:36;9.50;;;5.60;;
63688;SDS011;54895;40.928;14.480;2023-06-22T13:14:02;10.55;;;5.75;;
63688;SDS011;54895;40.928;14.480;2023-06-22T13:16:29;11.27;;;5.38;;
63688;SDS011;54895;40.928;14.480;2023-06-22T13:18:55;7.32;;;5.47;;
63688;SDS011;54895;40.928;14.480;2023-06-22T13:21:22;8.00;;;5.32;;
63688;SDS011;54895;40.928;14.480;2023-06-22T13:23:49;11.27;;;5.78;;
63688;SDS011;54895;40.928;14.480;2023-06-22T13:26:15;8.45;;;5.70;;
63688;SDS011;54895;40.928;14.480;2023-06-22T13:28:41;11.95;;;6.35;;
63688;SDS011;54895;40.928;14.480;2023-06-22T13:31:08;8.75;;;5.70;;
63688;SDS011;54895;40.928;14.480;2023-06-22T13:33:34;9.68;;;5.95;;
63688;SDS011;54895;40.928;14.480;2023-06-22T13:36:01;72.65;;;10.05;;
63688;SDS011;54895;40.928;14.480;2023-06-22T13:42:04;11.30;;;5.10;;
63688;SDS011;54895;40.928;14.480;2023-06-22T13:44:30;10.93;;;5.45;;
63688;SDS011;54895;40.928;14.480;2023-06-22T13:46:57;8.35;;;5.60;;
63688;SDS011;54895;40.928;14.480;2023-06-22T13:49:24;9.68;;;5.05;;
63688;SDS011;54895;40.928;14.480;2023-06-22T13:51:53;8.45;;;5.55;;
63688;SDS011;54895;40.928;14.480;2023-06-22T13:54:22;14.25;;;5.50;;
63688;SDS011;54895;40.928;14.480;2023-06-22T13:56:49;9.50;;;5.53;;
63688;SDS011;54895;40.928;14.480;2023-06-22T13:59:16;11.27;;;5.97;;
63688;SDS011;54895;40.928;14.480;2023-06-22T14:01:50;9.25;;;5.57;;
63688;SDS011;54895;40.928;14.480;2023-06-22T14:04:19;7.68;;;5.00;;
63688;SDS011;54895;40.928;14.480;2023-06-22T14:06:48;9.60;;;5.63;;
63688;SDS011;54895;40.928;14.480;2023-06-22T14:09:16;7.63;;;5.10;;
63688;SDS011;54895;40.928;14.480;2023-06-22T14:11:43;6.80;;;5.32;;
63688;SDS011;54895;40.928;14.480;2023-06-22T14:14:13;8.38;;;4.93;;
63688;SDS011;54895;40.928;14.480;2023-06-22T14:16:39;8.35;;;5.20;;
63688;SDS011;54895;40.928;14.480;2023-06-22T14:19:11;11.38;;;4.82;;
63688;SDS011;54895;40.928;14.480;2023-06-22T14:21:40;7.85;;;5.40;;
63688;SDS011;54895;40.928;14.480;2023-06-22T14:24:07;10.40;;;4.93;;
63688;SDS011;54895;40.928;14.480;2023-06-22T14:26:34;6.75;;;4.97;;
63688;SDS011;54895;40.928;14.480;2023-06-22T14:29:01;7.70;;;4.72;;
63688;SDS011;54895;40.928;14.480;2023-06-22T14:31:27;8.32;;;4.80;;
63688;SDS011;54895;40.928;14.480;2023-06-22T14:33:54;9.18;;;5.20;;
63688;SDS011;54895;40.928;14.480;2023-06-22T14:36:21;35.20;;;7.28;;
63688;SDS011;54895;40.928;14.480;2023-06-22T14:42:06;12.27;;;5.03;;
63688;SDS011;54895;40.928;14.480;2023-06-22T14:44:33;8.63;;;5.43;;
63688;SDS011;54895;40.928;14.480;2023-06-22T14:47:00;7.38;;;4.97;;
63688;SDS011;54895;40.928;14.480;2023-06-22T14:49:26;7.50;;;5.07;;
63688;SDS011;54895;40.928;14.480;2023-06-22T14:51:53;7.60;;;4.90;;
63688;SDS011;54895;40.928;14.480;2023-06-22T14:54:20;9.18;;;5.10;;
63688;SDS011;54895;40.928;14.480;2023-06-22T14:56:50;7.40;;;4.68;;
63688;SDS011;54895;40.928;14.480;2023-06-22T14:59:17;8.48;;;4.75;;
63688;SDS011;54895;40.928;14.480;2023-06-22T15:01:43;6.32;;;4.55;;
63688;SDS011;54895;40.928;14.480;2023-06-22T15:04:10;8.18;;;4.63;;
63688;SDS011;54895;40.928;14.480;2023-06-22T15:06:36;6.93;;;4.95;;
63688;SDS011;54895;40.928;14.480;2023-06-22T15:09:03;6.95;;;4.82;;
63688;SDS011;54895;40.928;14.480;2023-06-22T15:11:30;5.78;;;4.80;;
63688;SDS011;54895;40.928;14.480;2023-06-22T15:13:58;8.05;;;5.03;;
63688;SDS011;54895;40.928;14.480;2023-06-22T15:16:26;15.60;;;5.68;;
63688;SDS011;54895;40.928;14.480;2023-06-22T15:18:53;6.18;;;5.03;;
63688;SDS011;54895;40.928;14.480;2023-06-22T15:21:20;11.20;;;5.35;;
63688;SDS011;54895;40.928;14.480;2023-06-22T15:23:46;10.75;;;5.20;;
63688;SDS011;54895;40.928;14.480;2023-06-22T15:26:13;6.32;;;5.35;;
63688;SDS011;54895;40.928;14.480;2023-06-22T15:28:40;8.48;;;5.40;;
63688;SDS011;54895;40.928;14.480;2023-06-22T15:31:07;7.47;;;5.20;;